sensor_id;sensor_type;location;lat;lon;timestamp;P1;durP1;ratioP1;P2;durP2;ratioP2
2338;SDS011;1180;51.438;6.978;2022-09-09T00:03:25;2.53;;;1.00;;
2338;SDS011;1180;51.438;6.978;2022-09-09T00:11:12;2.50;;;0.93;;
2338;SDS011;1180;51.438;6.978;2022-09-09T00:13:46;1.20;;;0.90;;
2338;SDS011;1180;51.438;6.978;2022-09-09T00:16:16;1.10;;;0.70;;
2338;SDS011;1180;51.438;6.978;2022-09-09T00:21:26;2.40;;;0.83;;
2338;SDS011;1180;51.438;6.978;2022-09-09T00:24:11;1.80;;;0.93;;
2338;SDS011;1180;51.438;6.978;2022-09-09T00:26:51;2.17;;;0.70;;
2338;SDS011;1180;51.438;6.978;2022-09-09T00:32:13;1.37;;;0.73;;
2338;SDS011;1180;51.438;6.978;2022-09-09T00:34:52;1.40;;;0.90;;
2338;SDS011;1180;51.438;6.978;2022-09-09T00:37:21;2.03;;;1.10;;
2338;SDS011;1180;51.438;6.978;2022-09-09T00:39:50;2.03;;;1.20;;
2338;SDS011;1180;51.438;6.978;2022-09-09T00:45:45;1.90;;;0.80;;
2338;SDS011;1180;51.438;6.978;2022-09-09T00:48:07;1.43;;;0.70;;
2338;SDS011;1180;51.438;6.978;2022-09-09T00:50:44;1.47;;;0.87;;
2338;SDS011;1180;51.438;6.978;2022-09-09T00:53:38;2.03;;;1.07;;
2338;SDS011;1180;51.438;6.978;2022-09-09T00:56:25;1.60;;;0.80;;
2338;SDS011;1180;51.438;6.978;2022-09-09T00:59:16;2.20;;;0.80;;
2338;SDS011;1180;51.438;6.978;2022-09-09T01:01:50;1.23;;;1.00;;
2338;SDS011;1180;51.438;6.978;2022-09-09T01:04:19;1.47;;;1.00;;
2338;SDS011;1180;51.438;6.978;2022-09-09T01:06:59;1.40;;;0.80;;
2338;SDS011;1180;51.438;6.978;2022-09-09T01:12:34;1.50;;;0.97;;
2338;SDS011;1180;51.438;6.978;2022-09-09T01:23:35;3.63;;;1.50;;
2338;SDS011;1180;51.438;6.978;2022-09-09T01:26:33;2.53;;;1.60;;
2338;SDS011;1180;51.438;6.978;2022-09-09T01:29:08;2.40;;;1.03;;
2338;SDS011;1180;51.438;6.978;2022-09-09T01:31:39;1.80;;;1.40;;
2338;SDS011;1180;51.438;6.978;2022-09-09T01:34:32;3.20;;;1.40;;
2338;SDS011;1180;51.438;6.978;2022-09-09T01:37:03;2.20;;;1.27;;
2338;SDS011;1180;51.438;6.978;2022-09-09T01:39:35;1.33;;;1.23;;
2338;SDS011;1180;51.438;6.978;2022-09-09T01:42:03;2.80;;;1.50;;
2338;SDS011;1180;51.438;6.978;2022-09-09T01:44:31;3.97;;;1.60;;
2338;SDS011;1180;51.438;6.978;2022-09-09T01:46:58;2.23;;;1.60;;
2338;SDS011;1180;51.438;6.978;2022-09-09T01:49:23;3.47;;;1.50;;
2338;SDS011;1180;51.438;6.978;2022-09-09T01:51:50;5.43;;;1.30;;
2338;SDS011;1180;51.438;6.978;2022-09-09T01:54:18;4.13;;;2.33;;
2338;SDS011;1180;51.438;6.978;2022-09-09T02:00:05;3.30;;;1.30;;
2338;SDS011;1180;51.438;6.978;2022-09-09T02:02:36;2.03;;;1.27;;
2338;SDS011;1180;51.438;6.978;2022-09-09T02:07:57;2.40;;;1.60;;
2338;SDS011;1180;51.438;6.978;2022-09-09T02:10:31;2.43;;;1.30;;
2338;SDS011;1180;51.438;6.978;2022-09-09T02:13:02;3.10;;;1.50;;
2338;SDS011;1180;51.438;6.978;2022-09-09T02:15:45;2.43;;;1.40;;
2338;SDS011;1180;51.438;6.978;2022-09-09T02:18:19;1.10;;;0.97;;
2338;SDS011;1180;51.438;6.978;2022-09-09T02:21:01;3.70;;;1.50;;
2338;SDS011;1180;51.438;6.978;2022-09-09T02:23:28;2.20;;;1.43;;
2338;SDS011;1180;51.438;6.978;2022-09-09T02:25:54;4.00;;;1.70;;
2338;SDS011;1180;51.438;6.978;2022-09-09T02:28:22;1.60;;;1.27;;
2338;SDS011;1180;51.438;6.978;2022-09-09T02:30:52;2.40;;;1.43;;
2338;SDS011;1180;51.438;6.978;2022-09-09T02:33:22;3.80;;;1.80;;
2338;SDS011;1180;51.438;6.978;2022-09-09T02:35:52;2.37;;;1.27;;
2338;SDS011;1180;51.438;6.978;2022-09-09T02:38:21;1.90;;;1.30;;
2338;SDS011;1180;51.438;6.978;2022-09-09T02:40:51;3.73;;;1.50;;
2338;SDS011;1180;51.438;6.978;2022-09-09T02:43:16;2.60;;;1.80;;
2338;SDS011;1180;51.438;6.978;2022-09-09T02:45:45;2.53;;;1.40;;
2338;SDS011;1180;51.438;6.978;2022-09-09T02:48:23;1.93;;;1.57;;
2338;SDS011;1180;51.438;6.978;2022-09-09T02:51:15;2.70;;;1.30;;
2338;SDS011;1180;51.438;6.978;2022-09-09T02:57:09;2.57;;;1.60;;
2338;SDS011;1180;51.438;6.978;2022-09-09T02:59:37;2.87;;;1.90;;
2338;SDS011;1180;51.438;6.978;2022-09-09T03:02:03;3.43;;;2.20;;
2338;SDS011;1180;51.438;6.978;2022-09-09T03:04:30;2.60;;;2.13;;
2338;SDS011;1180;51.438;6.978;2022-09-09T03:06:56;3.70;;;2.50;;
2338;SDS011;1180;51.438;6.978;2022-09-09T03:09:22;4.07;;;2.20;;
2338;SDS011;1180;51.438;6.978;2022-09-09T03:11:47;3.73;;;2.70;;
2338;SDS011;1180;51.438;6.978;2022-09-09T03:14:14;3.63;;;2.53;;
2338;SDS011;1180;51.438;6.978;2022-09-09T03:16:40;4.43;;;2.23;;
2338;SDS011;1180;51.438;6.978;2022-09-09T03:19:07;4.00;;;2.30;;
2338;SDS011;1180;51.438;6.978;2022-09-09T03:21:32;2.07;;;1.87;;
2338;SDS011;1180;51.438;6.978;2022-09-09T03:23:58;4.67;;;2.70;;
2338;SDS011;1180;51.438;6.978;2022-09-09T03:26:23;4.63;;;2.07;;
2338;SDS011;1180;51.438;6.978;2022-09-09T03:28:49;5.67;;;2.20;;
2338;SDS011;1180;51.438;6.978;2022-09-09T03:31:17;2.07;;;1.77;;
2338;SDS011;1180;51.438;6.978;2022-09-09T03:33:44;2.80;;;2.03;;
2338;SDS011;1180;51.438;6.978;2022-09-09T03:36:09;4.47;;;1.90;;
2338;SDS011;1180;51.438;6.978;2022-09-09T03:38:35;2.80;;;2.33;;
2338;SDS011;1180;51.438;6.978;2022-09-09T03:41:01;2.40;;;1.43;;
2338;SDS011;1180;51.438;6.978;2022-09-09T03:43:27;4.97;;;1.80;;
2338;SDS011;1180;51.438;6.978;2022-09-09T03:45:54;2.03;;;1.30;;
2338;SDS011;1180;51.438;6.978;2022-09-09T03:48:22;2.43;;;1.60;;
2338;SDS011;1180;51.438;6.978;2022-09-09T03:50:48;2.33;;;1.40;;
2338;SDS011;1180;51.438;6.978;2022-09-09T03:53:16;3.30;;;1.60;;
2338;SDS011;1180;51.438;6.978;2022-09-09T03:55:49;2.47;;;1.30;;
2338;SDS011;1180;51.438;6.978;2022-09-09T03:58:19;2.50;;;1.73;;
2338;SDS011;1180;51.438;6.978;2022-09-09T04:03:46;1.90;;;1.60;;
2338;SDS011;1180;51.438;6.978;2022-09-09T04:06:12;4.00;;;1.53;;
2338;SDS011;1180;51.438;6.978;2022-09-09T04:08:39;4.03;;;2.00;;
2338;SDS011;1180;51.438;6.978;2022-09-09T04:11:05;3.93;;;1.43;;
2338;SDS011;1180;51.438;6.978;2022-09-09T04:13:34;4.23;;;1.63;;
2338;SDS011;1180;51.438;6.978;2022-09-09T04:16:03;2.33;;;1.60;;
2338;SDS011;1180;51.438;6.978;2022-09-09T04:18:28;3.37;;;1.90;;
2338;SDS011;1180;51.438;6.978;2022-09-09T04:20:54;2.60;;;1.50;;
2338;SDS011;1180;51.438;6.978;2022-09-09T04:23:22;5.23;;;1.70;;
2338;SDS011;1180;51.438;6.978;2022-09-09T04:25:53;3.97;;;1.40;;
2338;SDS011;1180;51.438;6.978;2022-09-09T04:28:20;3.40;;;1.90;;
2338;SDS011;1180;51.438;6.978;2022-09-09T04:30:48;5.87;;;1.37;;
2338;SDS011;1180;51.438;6.978;2022-09-09T04:33:14;3.43;;;1.30;;
2338;SDS011;1180;51.438;6.978;2022-09-09T04:35:43;3.23;;;1.33;;
2338;SDS011;1180;51.438;6.978;2022-09-09T04:38:10;4.63;;;1.70;;
2338;SDS011;1180;51.438;6.978;2022-09-09T04:40:35;1.80;;;1.60;;
2338;SDS011;1180;51.438;6.978;2022-09-09T04:43:02;4.23;;;1.57;;
2338;SDS011;1180;51.438;6.978;2022-09-09T04:45:29;2.73;;;1.30;;
2338;SDS011;1180;51.438;6.978;2022-09-09T04:47:55;2.80;;;1.70;;
2338;SDS011;1180;51.438;6.978;2022-09-09T04:50:20;3.00;;;1.47;;
2338;SDS011;1180;51.438;6.978;2022-09-09T04:52:46;4.83;;;2.00;;
2338;SDS011;1180;51.438;6.978;2022-09-09T04:55:11;3.00;;;1.60;;
2338;SDS011;1180;51.438;6.978;2022-09-09T04:57:38;4.40;;;1.83;;
2338;SDS011;1180;51.438;6.978;2022-09-09T05:00:04;5.00;;;1.70;;
2338;SDS011;1180;51.438;6.978;2022-09-09T05:02:30;5.13;;;1.83;;
2338;SDS011;1180;51.438;6.978;2022-09-09T05:04:55;4.83;;;1.60;;
2338;SDS011;1180;51.438;6.978;2022-09-09T05:07:21;5.40;;;1.70;;
2338;SDS011;1180;51.438;6.978;2022-09-09T05:09:46;3.70;;;1.70;;
2338;SDS011;1180;51.438;6.978;2022-09-09T05:12:14;5.00;;;1.60;;
2338;SDS011;1180;51.438;6.978;2022-09-09T05:14:41;3.03;;;1.80;;
2338;SDS011;1180;51.438;6.978;2022-09-09T05:17:07;4.60;;;1.70;;
2338;SDS011;1180;51.438;6.978;2022-09-09T05:19:32;3.43;;;2.50;;
2338;SDS011;1180;51.438;6.978;2022-09-09T05:21:58;3.60;;;1.97;;
2338;SDS011;1180;51.438;6.978;2022-09-09T05:24:23;3.90;;;2.47;;
2338;SDS011;1180;51.438;6.978;2022-09-09T05:26:49;6.77;;;1.80;;
2338;SDS011;1180;51.438;6.978;2022-09-09T05:29:14;5.47;;;1.77;;
2338;SDS011;1180;51.438;6.978;2022-09-09T05:31:39;5.10;;;1.97;;
2338;SDS011;1180;51.438;6.978;2022-09-09T05:34:06;4.27;;;1.70;;
2338;SDS011;1180;51.438;6.978;2022-09-09T05:36:31;4.60;;;2.17;;
2338;SDS011;1180;51.438;6.978;2022-09-09T05:38:57;5.53;;;2.27;;
2338;SDS011;1180;51.438;6.978;2022-09-09T05:41:23;7.33;;;3.17;;
2338;SDS011;1180;51.438;6.978;2022-09-09T05:43:48;3.73;;;2.07;;
2338;SDS011;1180;51.438;6.978;2022-09-09T05:48:44;4.00;;;1.90;;
2338;SDS011;1180;51.438;6.978;2022-09-09T05:51:16;6.27;;;1.80;;
2338;SDS011;1180;51.438;6.978;2022-09-09T05:53:44;4.17;;;1.73;;
2338;SDS011;1180;51.438;6.978;2022-09-09T05:56:11;3.00;;;2.10;;
2338;SDS011;1180;51.438;6.978;2022-09-09T05:58:42;5.33;;;2.07;;
2338;SDS011;1180;51.438;6.978;2022-09-09T06:01:12;5.37;;;2.13;;
2338;SDS011;1180;51.438;6.978;2022-09-09T06:03:40;7.10;;;2.50;;
2338;SDS011;1180;51.438;6.978;2022-09-09T06:06:07;2.83;;;1.70;;
2338;SDS011;1180;51.438;6.978;2022-09-09T06:08:35;4.13;;;1.70;;
2338;SDS011;1180;51.438;6.978;2022-09-09T06:11:04;7.73;;;2.23;;
2338;SDS011;1180;51.438;6.978;2022-09-09T06:13:31;3.73;;;2.10;;
2338;SDS011;1180;51.438;6.978;2022-09-09T06:15:57;5.90;;;2.57;;
2338;SDS011;1180;51.438;6.978;2022-09-09T06:18:23;2.43;;;2.00;;
2338;SDS011;1180;51.438;6.978;2022-09-09T06:20:56;3.90;;;1.93;;
2338;SDS011;1180;51.438;6.978;2022-09-09T06:23:23;2.47;;;1.80;;
2338;SDS011;1180;51.438;6.978;2022-09-09T06:25:49;4.10;;;1.83;;
2338;SDS011;1180;51.438;6.978;2022-09-09T06:28:15;4.07;;;1.63;;
2338;SDS011;1180;51.438;6.978;2022-09-09T06:30:42;7.73;;;2.67;;
2338;SDS011;1180;51.438;6.978;2022-09-09T06:33:07;3.10;;;2.47;;
2338;SDS011;1180;51.438;6.978;2022-09-09T06:35:33;1.80;;;1.63;;
2338;SDS011;1180;51.438;6.978;2022-09-09T06:37:58;2.33;;;1.70;;
2338;SDS011;1180;51.438;6.978;2022-09-09T06:40:24;5.13;;;1.83;;
2338;SDS011;1180;51.438;6.978;2022-09-09T06:42:50;2.40;;;1.63;;
2338;SDS011;1180;51.438;6.978;2022-09-09T06:45:15;4.27;;;1.93;;
2338;SDS011;1180;51.438;6.978;2022-09-09T06:47:41;5.40;;;2.10;;
2338;SDS011;1180;51.438;6.978;2022-09-09T06:50:07;5.97;;;2.40;;
2338;SDS011;1180;51.438;6.978;2022-09-09T06:52:33;4.10;;;1.93;;
2338;SDS011;1180;51.438;6.978;2022-09-09T06:54:58;2.83;;;2.10;;
2338;SDS011;1180;51.438;6.978;2022-09-09T06:57:24;3.20;;;2.67;;
2338;SDS011;1180;51.438;6.978;2022-09-09T06:59:51;5.53;;;2.40;;
2338;SDS011;1180;51.438;6.978;2022-09-09T07:02:17;8.70;;;2.37;;
2338;SDS011;1180;51.438;6.978;2022-09-09T07:04:42;5.83;;;2.60;;
2338;SDS011;1180;51.438;6.978;2022-09-09T07:07:08;5.90;;;2.00;;
2338;SDS011;1180;51.438;6.978;2022-09-09T07:09:34;7.93;;;2.77;;
2338;SDS011;1180;51.438;6.978;2022-09-09T07:12:00;3.30;;;1.70;;
2338;SDS011;1180;51.438;6.978;2022-09-09T07:14:26;3.20;;;2.33;;
2338;SDS011;1180;51.438;6.978;2022-09-09T07:16:52;3.83;;;2.07;;
2338;SDS011;1180;51.438;6.978;2022-09-09T07:19:17;2.23;;;1.90;;
2338;SDS011;1180;51.438;6.978;2022-09-09T07:21:42;3.67;;;2.13;;
2338;SDS011;1180;51.438;6.978;2022-09-09T07:24:08;8.40;;;2.53;;
2338;SDS011;1180;51.438;6.978;2022-09-09T07:26:35;6.67;;;2.10;;
2338;SDS011;1180;51.438;6.978;2022-09-09T07:29:02;3.73;;;1.70;;
2338;SDS011;1180;51.438;6.978;2022-09-09T07:31:31;2.70;;;1.50;;
2338;SDS011;1180;51.438;6.978;2022-09-09T07:33:59;3.23;;;1.60;;
2338;SDS011;1180;51.438;6.978;2022-09-09T07:36:26;4.27;;;1.90;;
2338;SDS011;1180;51.438;6.978;2022-09-09T07:38:57;4.53;;;1.67;;
2338;SDS011;1180;51.438;6.978;2022-09-09T07:41:26;1.80;;;1.60;;
2338;SDS011;1180;51.438;6.978;2022-09-09T07:44:06;3.90;;;2.33;;
2338;SDS011;1180;51.438;6.978;2022-09-09T07:46:33;4.40;;;2.10;;
2338;SDS011;1180;51.438;6.978;2022-09-09T07:49:00;6.07;;;1.60;;
2338;SDS011;1180;51.438;6.978;2022-09-09T07:51:26;4.70;;;1.90;;
2338;SDS011;1180;51.438;6.978;2022-09-09T07:53:56;4.73;;;1.53;;
2338;SDS011;1180;51.438;6.978;2022-09-09T07:56:24;4.53;;;1.93;;
2338;SDS011;1180;51.438;6.978;2022-09-09T07:58:52;2.10;;;1.33;;
2338;SDS011;1180;51.438;6.978;2022-09-09T08:01:23;2.67;;;1.70;;
2338;SDS011;1180;51.438;6.978;2022-09-09T08:04:09;4.40;;;2.20;;
2338;SDS011;1180;51.438;6.978;2022-09-09T08:06:40;6.37;;;1.67;;
2338;SDS011;1180;51.438;6.978;2022-09-09T08:09:08;2.30;;;1.30;;
2338;SDS011;1180;51.438;6.978;2022-09-09T08:11:34;3.30;;;1.60;;
2338;SDS011;1180;51.438;6.978;2022-09-09T08:14:01;3.80;;;2.10;;
2338;SDS011;1180;51.438;6.978;2022-09-09T08:16:31;4.17;;;1.60;;
2338;SDS011;1180;51.438;6.978;2022-09-09T08:19:01;6.10;;;1.80;;
2338;SDS011;1180;51.438;6.978;2022-09-09T08:21:28;5.20;;;1.57;;
2338;SDS011;1180;51.438;6.978;2022-09-09T08:23:56;4.83;;;1.53;;
2338;SDS011;1180;51.438;6.978;2022-09-09T08:26:26;4.30;;;1.50;;
2338;SDS011;1180;51.438;6.978;2022-09-09T08:28:54;4.70;;;1.77;;
2338;SDS011;1180;51.438;6.978;2022-09-09T08:31:22;3.43;;;2.10;;
2338;SDS011;1180;51.438;6.978;2022-09-09T08:33:49;5.67;;;1.50;;
2338;SDS011;1180;51.438;6.978;2022-09-09T08:36:16;3.23;;;1.43;;
2338;SDS011;1180;51.438;6.978;2022-09-09T08:38:43;8.03;;;2.20;;
2338;SDS011;1180;51.438;6.978;2022-09-09T08:49:38;2.87;;;1.40;;
2338;SDS011;1180;51.438;6.978;2022-09-09T08:55:44;6.03;;;2.30;;
2338;SDS011;1180;51.438;6.978;2022-09-09T09:03:28;3.20;;;1.63;;
2338;SDS011;1180;51.438;6.978;2022-09-09T09:06:01;4.33;;;1.60;;
2338;SDS011;1180;51.438;6.978;2022-09-09T09:08:47;2.40;;;2.00;;
2338;SDS011;1180;51.438;6.978;2022-09-09T09:11:21;3.37;;;1.80;;
2338;SDS011;1180;51.438;6.978;2022-09-09T09:13:57;3.67;;;1.63;;
2338;SDS011;1180;51.438;6.978;2022-09-09T09:18:59;3.97;;;1.37;;
2338;SDS011;1180;51.438;6.978;2022-09-09T09:21:34;2.80;;;1.33;;
2338;SDS011;1180;51.438;6.978;2022-09-09T09:24:05;6.70;;;1.77;;
2338;SDS011;1180;51.438;6.978;2022-09-09T09:26:40;2.53;;;1.47;;
2338;SDS011;1180;51.438;6.978;2022-09-09T09:29:19;4.23;;;1.50;;
2338;SDS011;1180;51.438;6.978;2022-09-09T09:31:53;3.53;;;1.47;;
2338;SDS011;1180;51.438;6.978;2022-09-09T09:34:21;5.70;;;1.80;;
2338;SDS011;1180;51.438;6.978;2022-09-09T09:36:57;3.83;;;1.40;;
2338;SDS011;1180;51.438;6.978;2022-09-09T09:39:30;1.97;;;1.50;;
2338;SDS011;1180;51.438;6.978;2022-09-09T09:42:12;3.30;;;1.57;;
2338;SDS011;1180;51.438;6.978;2022-09-09T09:44:39;1.67;;;1.10;;
2338;SDS011;1180;51.438;6.978;2022-09-09T09:47:12;5.00;;;1.60;;
2338;SDS011;1180;51.438;6.978;2022-09-09T09:49:38;2.57;;;1.40;;
2338;SDS011;1180;51.438;6.978;2022-09-09T09:52:05;5.83;;;1.57;;
2338;SDS011;1180;51.438;6.978;2022-09-09T09:54:39;2.50;;;1.60;;
2338;SDS011;1180;51.438;6.978;2022-09-09T09:57:08;3.90;;;1.40;;
2338;SDS011;1180;51.438;6.978;2022-09-09T09:59:35;3.90;;;1.60;;
2338;SDS011;1180;51.438;6.978;2022-09-09T10:04:38;2.87;;;1.00;;
2338;SDS011;1180;51.438;6.978;2022-09-09T10:07:16;6.07;;;1.30;;
2338;SDS011;1180;51.438;6.978;2022-09-09T10:09:43;2.67;;;1.50;;
2338;SDS011;1180;51.438;6.978;2022-09-09T10:15:32;3.97;;;1.10;;
2338;SDS011;1180;51.438;6.978;2022-09-09T10:18:04;6.50;;;1.90;;
2338;SDS011;1180;51.438;6.978;2022-09-09T10:31:24;3.40;;;1.23;;
2338;SDS011;1180;51.438;6.978;2022-09-09T10:34:16;3.73;;;1.53;;
2338;SDS011;1180;51.438;6.978;2022-09-09T10:36:57;2.53;;;1.10;;
2338;SDS011;1180;51.438;6.978;2022-09-09T10:39:36;2.90;;;1.00;;
2338;SDS011;1180;51.438;6.978;2022-09-09T10:42:14;2.33;;;1.17;;
2338;SDS011;1180;51.438;6.978;2022-09-09T10:47:39;3.10;;;1.30;;
2338;SDS011;1180;51.438;6.978;2022-09-09T10:55:18;2.90;;;1.20;;
2338;SDS011;1180;51.438;6.978;2022-09-09T10:57:46;1.97;;;1.27;;
2338;SDS011;1180;51.438;6.978;2022-09-09T11:02:55;4.00;;;1.30;;
2338;SDS011;1180;51.438;6.978;2022-09-09T11:19:04;1.90;;;1.10;;
2338;SDS011;1180;51.438;6.978;2022-09-09T11:21:42;2.20;;;1.00;;
2338;SDS011;1180;51.438;6.978;2022-09-09T11:26:57;1.67;;;1.53;;
2338;SDS011;1180;51.438;6.978;2022-09-09T11:29:38;1.47;;;1.37;;
2338;SDS011;1180;51.438;6.978;2022-09-09T11:32:32;3.07;;;1.57;;
2338;SDS011;1180;51.438;6.978;2022-09-09T11:35:07;1.83;;;0.90;;
2338;SDS011;1180;51.438;6.978;2022-09-09T11:38:04;2.57;;;1.13;;
2338;SDS011;1180;51.438;6.978;2022-09-09T11:40:44;1.70;;;1.10;;
2338;SDS011;1180;51.438;6.978;2022-09-09T11:43:12;4.30;;;1.60;;
2338;SDS011;1180;51.438;6.978;2022-09-09T11:46:03;2.10;;;1.40;;
2338;SDS011;1180;51.438;6.978;2022-09-09T11:48:31;6.50;;;1.17;;
2338;SDS011;1180;51.438;6.978;2022-09-09T11:51:08;1.40;;;1.10;;
2338;SDS011;1180;51.438;6.978;2022-09-09T11:53:46;2.17;;;1.13;;
2338;SDS011;1180;51.438;6.978;2022-09-09T11:56:23;1.67;;;1.10;;
2338;SDS011;1180;51.438;6.978;2022-09-09T11:59:33;1.67;;;1.27;;
2338;SDS011;1180;51.438;6.978;2022-09-09T12:01:49;2.70;;;0.90;;
2338;SDS011;1180;51.438;6.978;2022-09-09T12:06:53;1.73;;;1.33;;
2338;SDS011;1180;51.438;6.978;2022-09-09T12:09:27;2.13;;;1.00;;
2338;SDS011;1180;51.438;6.978;2022-09-09T12:17:25;4.10;;;1.40;;
2338;SDS011;1180;51.438;6.978;2022-09-09T12:25:31;1.50;;;0.93;;
2338;SDS011;1180;51.438;6.978;2022-09-09T12:28:17;1.23;;;0.83;;
2338;SDS011;1180;51.438;6.978;2022-09-09T12:33:19;2.43;;;1.50;;
2338;SDS011;1180;51.438;6.978;2022-09-09T12:35:45;1.67;;;1.10;;
2338;SDS011;1180;51.438;6.978;2022-09-09T12:38:22;2.47;;;1.00;;
2338;SDS011;1180;51.438;6.978;2022-09-09T12:40:55;1.97;;;0.73;;
2338;SDS011;1180;51.438;6.978;2022-09-09T12:43:22;3.07;;;0.93;;
2338;SDS011;1180;51.438;6.978;2022-09-09T12:45:49;3.80;;;1.40;;
2338;SDS011;1180;51.438;6.978;2022-09-09T12:48:22;1.00;;;0.87;;
2338;SDS011;1180;51.438;6.978;2022-09-09T12:50:55;3.97;;;1.00;;
2338;SDS011;1180;51.438;6.978;2022-09-09T12:53:25;1.53;;;1.13;;
2338;SDS011;1180;51.438;6.978;2022-09-09T12:55:58;2.60;;;1.50;;
2338;SDS011;1180;51.438;6.978;2022-09-09T12:58:26;1.73;;;1.47;;
2338;SDS011;1180;51.438;6.978;2022-09-09T13:00:57;2.23;;;1.30;;
2338;SDS011;1180;51.438;6.978;2022-09-09T13:03:24;2.90;;;1.30;;
2338;SDS011;1180;51.438;6.978;2022-09-09T13:05:53;2.60;;;1.33;;
2338;SDS011;1180;51.438;6.978;2022-09-09T13:08:24;4.90;;;1.27;;
2338;SDS011;1180;51.438;6.978;2022-09-09T13:10:54;3.10;;;1.50;;
2338;SDS011;1180;51.438;6.978;2022-09-09T13:13:31;3.53;;;1.30;;
2338;SDS011;1180;51.438;6.978;2022-09-09T13:16:03;3.23;;;1.00;;
2338;SDS011;1180;51.438;6.978;2022-09-09T13:18:33;1.30;;;0.90;;
2338;SDS011;1180;51.438;6.978;2022-09-09T13:21:00;1.67;;;1.23;;
2338;SDS011;1180;51.438;6.978;2022-09-09T13:23:26;1.73;;;1.27;;
2338;SDS011;1180;51.438;6.978;2022-09-09T13:25:58;3.10;;;1.63;;
2338;SDS011;1180;51.438;6.978;2022-09-09T13:28:29;3.27;;;1.30;;
2338;SDS011;1180;51.438;6.978;2022-09-09T13:31:02;2.40;;;1.50;;
2338;SDS011;1180;51.438;6.978;2022-09-09T13:33:45;4.03;;;1.67;;
2338;SDS011;1180;51.438;6.978;2022-09-09T13:36:10;2.33;;;1.30;;
2338;SDS011;1180;51.438;6.978;2022-09-09T13:38:38;2.20;;;1.47;;
2338;SDS011;1180;51.438;6.978;2022-09-09T13:41:24;3.73;;;0.90;;
2338;SDS011;1180;51.438;6.978;2022-09-09T13:43:57;2.23;;;1.33;;
2338;SDS011;1180;51.438;6.978;2022-09-09T13:49:03;3.07;;;1.00;;
2338;SDS011;1180;51.438;6.978;2022-09-09T13:51:46;3.30;;;1.00;;
2338;SDS011;1180;51.438;6.978;2022-09-09T13:54:18;2.80;;;1.00;;
2338;SDS011;1180;51.438;6.978;2022-09-09T13:56:44;2.43;;;0.90;;
2338;SDS011;1180;51.438;6.978;2022-09-09T13:59:12;1.93;;;0.97;;
2338;SDS011;1180;51.438;6.978;2022-09-09T14:01:38;3.13;;;1.20;;
2338;SDS011;1180;51.438;6.978;2022-09-09T14:04:04;2.50;;;1.30;;
2338;SDS011;1180;51.438;6.978;2022-09-09T14:06:36;3.97;;;1.00;;
2338;SDS011;1180;51.438;6.978;2022-09-09T14:09:07;1.23;;;0.80;;
2338;SDS011;1180;51.438;6.978;2022-09-09T14:11:37;2.27;;;1.00;;
2338;SDS011;1180;51.438;6.978;2022-09-09T14:14:03;2.70;;;1.20;;
2338;SDS011;1180;51.438;6.978;2022-09-09T14:16:28;1.60;;;1.03;;
2338;SDS011;1180;51.438;6.978;2022-09-09T14:18:54;1.20;;;0.90;;
2338;SDS011;1180;51.438;6.978;2022-09-09T14:21:24;3.10;;;1.00;;
2338;SDS011;1180;51.438;6.978;2022-09-09T14:23:50;3.30;;;1.20;;
2338;SDS011;1180;51.438;6.978;2022-09-09T14:26:15;2.73;;;1.03;;
2338;SDS011;1180;51.438;6.978;2022-09-09T14:28:41;2.10;;;1.37;;
2338;SDS011;1180;51.438;6.978;2022-09-09T14:31:06;2.00;;;1.23;;
2338;SDS011;1180;51.438;6.978;2022-09-09T14:33:32;2.33;;;1.60;;
2338;SDS011;1180;51.438;6.978;2022-09-09T14:35:59;4.33;;;1.43;;
2338;SDS011;1180;51.438;6.978;2022-09-09T14:38:28;3.37;;;1.37;;
2338;SDS011;1180;51.438;6.978;2022-09-09T14:40:55;2.07;;;1.60;;
2338;SDS011;1180;51.438;6.978;2022-09-09T14:43:21;3.50;;;1.20;;
2338;SDS011;1180;51.438;6.978;2022-09-09T14:45:46;4.87;;;1.50;;
2338;SDS011;1180;51.438;6.978;2022-09-09T14:48:13;2.50;;;1.30;;
2338;SDS011;1180;51.438;6.978;2022-09-09T14:50:40;3.03;;;1.03;;
2338;SDS011;1180;51.438;6.978;2022-09-09T14:53:07;2.90;;;1.73;;
2338;SDS011;1180;51.438;6.978;2022-09-09T14:55:34;4.20;;;1.50;;
2338;SDS011;1180;51.438;6.978;2022-09-09T14:58:00;7.47;;;2.40;;
2338;SDS011;1180;51.438;6.978;2022-09-09T15:00:25;3.57;;;1.70;;
2338;SDS011;1180;51.438;6.978;2022-09-09T15:02:54;3.73;;;1.40;;
2338;SDS011;1180;51.438;6.978;2022-09-09T15:05:19;2.97;;;1.30;;
2338;SDS011;1180;51.438;6.978;2022-09-09T15:07:45;3.20;;;1.80;;
2338;SDS011;1180;51.438;6.978;2022-09-09T15:10:12;2.23;;;1.43;;
2338;SDS011;1180;51.438;6.978;2022-09-09T15:12:37;1.57;;;1.00;;
2338;SDS011;1180;51.438;6.978;2022-09-09T15:15:03;2.07;;;1.23;;
2338;SDS011;1180;51.438;6.978;2022-09-09T15:17:29;1.60;;;1.00;;
2338;SDS011;1180;51.438;6.978;2022-09-09T15:19:54;2.90;;;1.00;;
2338;SDS011;1180;51.438;6.978;2022-09-09T15:22:20;1.33;;;0.70;;
2338;SDS011;1180;51.438;6.978;2022-09-09T15:24:45;1.13;;;0.73;;
2338;SDS011;1180;51.438;6.978;2022-09-09T15:27:12;3.00;;;1.07;;
2338;SDS011;1180;51.438;6.978;2022-09-09T15:29:39;2.00;;;0.80;;
2338;SDS011;1180;51.438;6.978;2022-09-09T15:32:04;3.33;;;0.90;;
2338;SDS011;1180;51.438;6.978;2022-09-09T15:34:30;1.00;;;0.80;;
2338;SDS011;1180;51.438;6.978;2022-09-09T15:36:56;1.40;;;0.70;;
2338;SDS011;1180;51.438;6.978;2022-09-09T15:39:21;0.90;;;0.60;;
2338;SDS011;1180;51.438;6.978;2022-09-09T15:41:47;2.03;;;1.23;;
2338;SDS011;1180;51.438;6.978;2022-09-09T15:44:13;0.90;;;0.60;;
2338;SDS011;1180;51.438;6.978;2022-09-09T15:46:41;0.90;;;0.63;;
2338;SDS011;1180;51.438;6.978;2022-09-09T15:49:13;1.83;;;0.83;;
2338;SDS011;1180;51.438;6.978;2022-09-09T15:51:43;1.00;;;0.70;;
2338;SDS011;1180;51.438;6.978;2022-09-09T15:54:14;1.53;;;0.80;;
2338;SDS011;1180;51.438;6.978;2022-09-09T15:56:42;1.57;;;0.80;;
2338;SDS011;1180;51.438;6.978;2022-09-09T15:59:08;1.20;;;0.90;;
2338;SDS011;1180;51.438;6.978;2022-09-09T16:01:35;2.37;;;0.80;;
2338;SDS011;1180;51.438;6.978;2022-09-09T16:04:00;0.80;;;0.60;;
2338;SDS011;1180;51.438;6.978;2022-09-09T16:06:27;1.13;;;0.80;;
2338;SDS011;1180;51.438;6.978;2022-09-09T16:08:53;1.03;;;0.80;;
2338;SDS011;1180;51.438;6.978;2022-09-09T16:11:22;2.10;;;0.90;;
2338;SDS011;1180;51.438;6.978;2022-09-09T16:13:49;1.30;;;1.00;;
2338;SDS011;1180;51.438;6.978;2022-09-09T16:16:17;0.93;;;0.77;;
2338;SDS011;1180;51.438;6.978;2022-09-09T16:18:53;1.33;;;0.60;;
2338;SDS011;1180;51.438;6.978;2022-09-09T16:21:27;3.07;;;0.83;;
2338;SDS011;1180;51.438;6.978;2022-09-09T16:23:54;2.10;;;0.83;;
2338;SDS011;1180;51.438;6.978;2022-09-09T16:26:20;1.40;;;0.67;;
2338;SDS011;1180;51.438;6.978;2022-09-09T16:28:46;1.03;;;0.77;;
2338;SDS011;1180;51.438;6.978;2022-09-09T16:31:16;1.57;;;1.00;;
2338;SDS011;1180;51.438;6.978;2022-09-09T16:33:46;2.33;;;0.90;;
2338;SDS011;1180;51.438;6.978;2022-09-09T16:36:13;1.10;;;0.87;;
2338;SDS011;1180;51.438;6.978;2022-09-09T16:38:41;1.40;;;0.97;;
2338;SDS011;1180;51.438;6.978;2022-09-09T16:41:08;4.30;;;1.57;;
2338;SDS011;1180;51.438;6.978;2022-09-09T16:43:37;1.67;;;1.30;;
2338;SDS011;1180;51.438;6.978;2022-09-09T16:46:15;1.30;;;1.07;;
2338;SDS011;1180;51.438;6.978;2022-09-09T16:48:43;2.17;;;1.23;;
2338;SDS011;1180;51.438;6.978;2022-09-09T16:51:14;2.20;;;1.50;;
2338;SDS011;1180;51.438;6.978;2022-09-09T16:53:48;2.53;;;1.80;;
2338;SDS011;1180;51.438;6.978;2022-09-09T16:56:15;2.03;;;1.20;;
2338;SDS011;1180;51.438;6.978;2022-09-09T16:58:51;2.40;;;1.30;;
2338;SDS011;1180;51.438;6.978;2022-09-09T17:01:20;1.40;;;1.27;;
2338;SDS011;1180;51.438;6.978;2022-09-09T17:03:59;3.20;;;1.93;;
2338;SDS011;1180;51.438;6.978;2022-09-09T17:06:27;3.43;;;1.30;;
2338;SDS011;1180;51.438;6.978;2022-09-09T17:08:55;2.50;;;1.30;;
2338;SDS011;1180;51.438;6.978;2022-09-09T17:11:23;2.17;;;1.40;;
2338;SDS011;1180;51.438;6.978;2022-09-09T17:13:49;3.20;;;1.60;;
2338;SDS011;1180;51.438;6.978;2022-09-09T17:16:17;2.73;;;1.50;;
2338;SDS011;1180;51.438;6.978;2022-09-09T17:18:49;1.50;;;1.13;;
2338;SDS011;1180;51.438;6.978;2022-09-09T17:21:17;2.40;;;1.13;;
2338;SDS011;1180;51.438;6.978;2022-09-09T17:23:44;1.83;;;1.10;;
2338;SDS011;1180;51.438;6.978;2022-09-09T17:26:11;2.77;;;1.57;;
2338;SDS011;1180;51.438;6.978;2022-09-09T17:28:38;3.30;;;2.00;;
2338;SDS011;1180;51.438;6.978;2022-09-09T17:31:06;2.23;;;1.17;;
2338;SDS011;1180;51.438;6.978;2022-09-09T17:33:33;2.70;;;1.03;;
2338;SDS011;1180;51.438;6.978;2022-09-09T17:36:01;1.33;;;1.10;;